Aviation Digital Data Service (ADDS)

Output produced by METARs form (1311 UTC 25 February 2018)
found at http://aviationweather.gov/adds/metars/
 
KPVD 251128Z 2512/2612 07010KT 5SM -RA BR OVC025 
     FM251300 09010G22KT 3SM -RA BR OVC015 
     FM252000 07008KT 3SM BR VCSH OVC008 
     FM252200 04007KT 3SM BR OVC003 
     FM260200 34004KT 3SM BR BKN003 
     FM260400 32004KT P6SM BKN015 
     FM260600 32004KT P6SM BKN100